Startpagina
METAR-TAF:

METAR-TAF

Vliegvelden :

Internationale Luchthaven Oostende-Brugge

Oostende, België

breedte: 51-12N, lengte: 002-52E, hoogte: 4 m

Actueel weer

Dit bericht is 42 minuten geleden gemaakt, om 05:20 UTC
Wind 5 kt uit het oostnoordoosten
Temperatuur -2°C
Vochtigheid 93%
Druk 1028 hPa
Zicht 10 km of meer
geen wolken onder 1500 m en geen cumulonimbus

METAR: EBOS 070520Z 07005KT CAVOK M02/M03 Q1028 NOSIG

Tijdstip: 07:02 (06:02 UTC)

Verwachting

Dit bericht is 42 minuten geleden gemaakt, om 05:20 UTC
Verwachting geldig van 07 om 06 UTC tot 08 om 12 UTC
Wind 6 kt uit het noordoosten
Zicht 10 km of meer
geen wolken onder 1500 m en geen cumulonimbus
Kans 30% :
Tijdelijke
van 07 om 06 UTC tot 07 om 08 UTC
Zicht: 1200 m
mistbanken
Kans 30% :
Tijdelijke
van 08 om 04 UTC tot 08 om 08 UTC
Zicht: 3000 m
nevel, Ondiepe mist

TAF: EBOS 070520Z 0706/0812 05006KT CAVOK PROB30 TEMPO 0706/0708 1200 BCFG PROB30 TEMPO 0804/0808 3000 BR MIFG

Waarnemingen en weersverwachtingen van meer dan 4000 vliegvelden (METAR en TAF).

De beschikbare stations zijn de gele en rode punten op de kaart.

Ga met uw muis naar het station om de naam te zien.

Klik dan om waarnemingen en weersverwachtingen te zien.

kaart wijzigen: klik op de groene knoppen met een zwart kruis om in te zoomen, op de groene knop met een streepje om uit te zoomen of op de groene pijlen voor aangrenzende kaarten.


METAR-TAF: